Kapitan Permyakov — UFQN — position and weather

sailwx.info

Track history (hours):
 
Tides and Currents Weather Stations Pressure Air Temp Water Temp Dewpoint Dewpoint Depression Visibility Wind Speed Wind Dir Waves Ship Positions

Kapitan Permyakov

Last reported at 2017-Oct-08 16:18 UTC. Time now 2017-Oct-18 22:33 UTC.
Position N 45°32' E 036°46'.
Warning: this ship's position is 10 days out of date.

Length 140 m; draft 2.9 m.

Type: Tanker. MMSI: 273343600.

Date/timePositionNaut miles runAvg speedWind from/ knotsBaromVisibWave heightAir tempDewpointWater temp
2017-Oct-08 16:18N 45°32' E 036°46'4 8.6
2017-Oct-08 15:53N 45°29' E 036°43'3 8.2
2017-Oct-08 15:30N 45°26' E 036°42'4 8.6
2017-Oct-08 15:00N 45°22' E 036°40'4 8.4
2017-Oct-08 14:30N 45°20' E 036°35'4 8.9
2017-Oct-08 14:00N 45°18' E 036°29'4 7.8
2017-Oct-08 13:30N 45°14' E 036°28'2 3.3
2017-Oct-08 13:00N 45°12' E 036°29'2 2.6
2017-Oct-08 12:23N 45°13' E 036°31'0 0.0
2017-Oct-08 11:56N 45°13' E 036°31'0 0.0
2017-Oct-08 02:08N 45°13' E 036°31'0 0.0
2017-Oct-08 01:55N 45°13' E 036°31'0 0.0
2017-Oct-08 01:28N 45°13' E 036°31'0 0.0
2017-Oct-07 22:00N 45°13' E 036°31'0 0.0
2017-Oct-07 20:26N 45°13' E 036°31'0 0.0
2017-Oct-07 19:51N 45°13' E 036°31'0 0.0
2017-Oct-07 18:25N 45°13' E 036°31'0 0.0
2017-Oct-07 17:53N 45°13' E 036°31'0 0.0
2017-Oct-07 17:28N 45°13' E 036°31'0 0.0
2017-Oct-07 14:25N 45°13' E 036°31'0 0.1
2017-Oct-07 14:00N 45°13' E 036°31'0 0.0
2017-Oct-07 13:28N 45°13' E 036°31'0 0.1
2017-Oct-07 12:39N 45°13' E 036°31'0 0.3
2017-Oct-07 12:30N 45°13' E 036°31'3 5.2
2017-Oct-07 12:00N 45°11' E 036°29'4 7.0
2017-Oct-07 11:29N 45°07' E 036°30'  
2017-Oct-04 16:13N 40°59' E 028°60'3 5.2
2017-Oct-04 15:39N 40°56' E 028°60'1 4.6
2017-Oct-04 15:29N 40°55' E 028°59'3 5.4
2017-Oct-04 14:58N 40°54' E 028°56'3 5.2
2017-Oct-04 14:21N 40°52' E 028°53'5 0.4
2017-Oct-04 01:44N 40°57' E 028°56'6 5.1
2017-Oct-04 00:38N 40°52' E 028°52'  
Track history (hours):
 
Tides and Currents Weather Stations Pressure Air Temp Water Temp Dewpoint Dewpoint Depression Visibility Wind Speed Wind Dir Waves Ship Positions

Kapitan Permyakov

Last reported at 2017-Oct-08 16:18 UTC. Time now 2017-Oct-18 22:33 UTC.
Position N 45°32' E 036°46'.
Warning: this ship's position is 10 days out of date.

Length 140 m; draft 2.9 m.

Type: Tanker. MMSI: 273343600.

Date/timePositionNaut miles runAvg speedWind from/ knotsBaromVisibWave heightAir tempDewpointWater temp
2017-Oct-08 16:18N 45°32' E 036°46'4 8.6
2017-Oct-08 15:53N 45°29' E 036°43'3 8.2
2017-Oct-08 15:30N 45°26' E 036°42'4 8.6
2017-Oct-08 15:00N 45°22' E 036°40'4 8.4
2017-Oct-08 14:30N 45°20' E 036°35'4 8.9
2017-Oct-08 14:00N 45°18' E 036°29'4 7.8
2017-Oct-08 13:30N 45°14' E 036°28'2 3.3
2017-Oct-08 13:00N 45°12' E 036°29'2 2.6
2017-Oct-08 12:23N 45°13' E 036°31'0 0.0
2017-Oct-08 11:56N 45°13' E 036°31'0 0.0
2017-Oct-08 02:08N 45°13' E 036°31'0 0.0
2017-Oct-08 01:55N 45°13' E 036°31'0 0.0
2017-Oct-08 01:28N 45°13' E 036°31'0 0.0
2017-Oct-07 22:00N 45°13' E 036°31'0 0.0
2017-Oct-07 20:26N 45°13' E 036°31'0 0.0
2017-Oct-07 19:51N 45°13' E 036°31'0 0.0
2017-Oct-07 18:25N 45°13' E 036°31'0 0.0
2017-Oct-07 17:53N 45°13' E 036°31'0 0.0
2017-Oct-07 17:28N 45°13' E 036°31'0 0.0
2017-Oct-07 14:25N 45°13' E 036°31'0 0.1
2017-Oct-07 14:00N 45°13' E 036°31'0 0.0
2017-Oct-07 13:28N 45°13' E 036°31'0 0.1
2017-Oct-07 12:39N 45°13' E 036°31'0 0.3
2017-Oct-07 12:30N 45°13' E 036°31'3 5.2
2017-Oct-07 12:00N 45°11' E 036°29'4 7.0
2017-Oct-07 11:29N 45°07' E 036°30'  
2017-Oct-04 16:13N 40°59' E 028°60'3 5.2
2017-Oct-04 15:39N 40°56' E 028°60'1 4.6
2017-Oct-04 15:29N 40°55' E 028°59'3 5.4
2017-Oct-04 14:58N 40°54' E 028°56'3 5.2
2017-Oct-04 14:21N 40°52' E 028°53'5 0.4
2017-Oct-04 01:44N 40°57' E 028°56'6 5.1
2017-Oct-04 00:38N 40°52' E 028°52'  

Dump ship's entire track history